Time;durP1;ratioP1;P1;durP2;ratioP2;P2;SDS_P1;SDS_P2;PMS_P1;PMS_P2;Temp;Humidity;BMP_temperature;BMP_pressure;BME280_temperature;BME280_humidity;BME280_pressure;Samples;Min_cycle;Max_cycle;Signal;HPM_P1;HPM_P2
2024/04/21 00:00:53;;;;;;;5.88;3.85;;;23.90;99.90;;;;;;5395376;21;20000;-50
2024/04/21 00:03:18;;;;;;;4.60;3.03;;;23.90;99.90;;;;;;5380847;26;19992;-50
2024/04/21 00:05:44;;;;;;;6.55;3.15;;;23.80;99.90;;;;;;5379199;26;20008;-50
2024/04/21 00:08:11;;;;;;;7.90;3.78;;;23.80;99.90;;;;;;5380778;26;19992;-51
2024/04/21 00:10:37;;;;;;;5.63;3.17;;;23.90;99.90;;;;;;5380643;26;20007;-51
2024/04/21 00:13:03;;;;;;;6.22;3.88;;;23.90;99.90;;;;;;5380727;26;20443;-50
2024/04/21 00:15:29;;;;;;;5.53;3.25;;;23.80;99.90;;;;;;5378940;26;20004;-50
2024/04/21 00:17:54;;;;;;;5.13;3.22;;;23.80;99.90;;;;;;5380954;26;20007;-50
2024/04/21 00:20:20;;;;;;;6.38;3.72;;;23.80;99.90;;;;;;5380946;26;19996;-51
2024/04/21 00:22:46;;;;;;;4.10;2.97;;;23.80;99.90;;;;;;5378831;26;20349;-51
2024/04/21 00:25:12;;;;;;;5.00;3.13;;;23.80;99.90;;;;;;5380526;26;19993;-50
2024/04/21 00:27:39;;;;;;;5.65;3.47;;;23.80;99.90;;;;;;5380642;26;19997;-50
2024/04/21 00:30:05;;;;;;;6.82;4.03;;;23.80;99.90;;;;;;5380432;26;20464;-51
2024/04/21 00:32:31;;;;;;;5.10;3.25;;;23.80;99.90;;;;;;5380008;26;19992;-51
2024/04/21 00:34:56;;;;;;;5.60;3.03;;;23.80;99.90;;;;;;5380604;26;19997;-51
2024/04/21 00:37:22;;;;;;;5.38;3.40;;;23.80;99.90;;;;;;5380685;26;19992;-51
2024/04/21 00:39:48;;;;;;;5.05;3.15;;;23.80;99.90;;;;;;5380545;26;20004;-51
2024/04/21 00:42:14;;;;;;;7.10;3.80;;;23.80;99.90;;;;;;5380444;26;20463;-51
2024/04/21 00:44:40;;;;;;;6.38;3.53;;;23.80;99.90;;;;;;5380310;26;19996;-50
2024/04/21 00:47:05;;;;;;;6.45;3.10;;;23.80;99.90;;;;;;5380083;26;19992;-51
2024/04/21 00:49:31;;;;;;;6.88;3.45;;;23.80;99.90;;;;;;5378238;26;20043;-51
2024/04/21 00:51:57;;;;;;;5.47;3.13;;;23.80;99.90;;;;;;5380023;26;20293;-53
2024/04/21 00:54:23;;;;;;;7.30;3.85;;;23.80;99.90;;;;;;5380411;26;20007;-51
2024/04/21 00:56:50;;;;;;;4.90;3.35;;;23.80;99.90;;;;;;5379651;26;19996;-52
2024/04/21 00:59:17;;;;;;;5.97;3.27;;;23.80;99.90;;;;;;5380110;26;20067;-52
2024/04/21 01:01:45;;;;;;;6.85;3.72;;;23.80;99.90;;;;;;5380316;26;20003;-52
2024/04/21 01:04:11;;;;;;;5.50;3.55;;;23.70;99.90;;;;;;5383255;26;20004;-52
2024/04/21 01:06:37;;;;;;;5.68;3.28;;;23.80;99.90;;;;;;5383343;26;20004;-53
2024/04/21 01:09:03;;;;;;;4.28;3.03;;;23.70;99.90;;;;;;5383445;26;19996;-52
2024/04/21 01:11:28;;;;;;;4.85;3.20;;;23.70;99.90;;;;;;5383359;26;19996;-52
2024/04/21 01:13:54;;;;;;;6.00;3.92;;;23.70;99.90;;;;;;5383248;26;19997;-52
2024/04/21 01:16:20;;;;;;;3.70;2.90;;;23.70;99.90;;;;;;5381653;26;19992;-52
2024/04/21 01:18:46;;;;;;;5.80;3.85;;;23.70;99.90;;;;;;5383050;26;20000;-52
2024/04/21 01:21:12;;;;;;;5.55;3.30;;;23.70;99.90;;;;;;5383418;26;19992;-52
2024/04/21 01:23:38;;;;;;;4.65;2.97;;;23.70;99.90;;;;;;5383275;26;20004;-52
2024/04/21 01:26:04;;;;;;;4.65;3.30;;;23.70;99.90;;;;;;5381205;26;19996;-52
2024/04/21 01:28:30;;;;;;;6.78;4.15;;;23.70;99.90;;;;;;5383043;26;19996;-52
2024/04/21 01:30:57;;;;;;;4.10;3.38;;;23.70;99.90;;;;;;5382806;26;20441;-52
2024/04/21 01:33:23;;;;;;;8.23;3.97;;;23.70;99.90;;;;;;5380895;26;19996;-52
2024/04/21 01:35:49;;;;;;;5.82;3.65;;;23.70;99.90;;;;;;5383120;26;20000;-52
2024/04/21 01:38:15;;;;;;;5.40;3.45;;;23.60;99.90;;;;;;5382876;26;20436;-52
2024/04/21 01:40:41;;;;;;;6.18;3.22;;;23.70;99.90;;;;;;5383257;26;19996;-52
2024/04/21 01:43:07;;;;;;;6.00;3.80;;;23.70;99.90;;;;;;5382940;26;20422;-52
2024/04/21 01:45:33;;;;;;;5.32;3.67;;;23.60;99.90;;;;;;5382556;26;20448;-52
2024/04/21 01:47:58;;;;;;;5.85;3.35;;;23.60;99.90;;;;;;5382940;26;20425;-52
2024/04/21 01:50:25;;;;;;;6.78;4.40;;;23.60;99.90;;;;;;5382743;26;20004;-51
2024/04/21 01:52:51;;;;;;;5.60;3.65;;;23.60;99.90;;;;;;5382807;26;20043;-51
2024/04/21 01:55:17;;;;;;;6.38;4.00;;;23.60;99.90;;;;;;5382696;26;19996;-51
2024/04/21 01:57:43;;;;;;;6.38;3.70;;;23.60;99.90;;;;;;5382987;26;20008;-52
2024/04/21 02:00:09;;;;;;;8.38;4.22;;;23.60;99.90;;;;;;5382697;26;19996;-52
2024/04/21 02:02:35;;;;;;;6.18;4.43;;;23.60;99.90;;;;;;5396432;21;20019;-50
2024/04/21 02:05:01;;;;;;;5.03;3.45;;;23.60;99.90;;;;;;5410256;26;20355;-50
2024/04/21 02:07:27;;;;;;;6.88;4.30;;;23.60;99.90;;;;;;5382283;26;20002;-49
2024/04/21 02:09:52;;;;;;;5.97;3.60;;;23.60;99.90;;;;;;5382461;26;19996;-50
2024/04/21 02:12:18;;;;;;;8.30;3.72;;;23.60;99.90;;;;;;5382341;26;20003;-50
2024/04/21 02:14:44;;;;;;;6.88;4.65;;;23.60;99.90;;;;;;5382194;26;20461;-49
2024/04/21 02:17:10;;;;;;;5.53;4.25;;;23.60;99.90;;;;;;5382459;26;20000;-49
2024/04/21 02:19:35;;;;;;;5.57;3.97;;;23.60;99.90;;;;;;5382083;26;20443;-50
2024/04/21 02:22:01;;;;;;;8.10;4.40;;;23.60;99.90;;;;;;5409917;26;20014;-50
2024/04/21 02:24:37;;;;;;;6.53;4.22;;;23.50;99.90;;;;;;5382205;26;20065;-50
2024/04/21 02:27:03;;;;;;;7.10;3.97;;;23.60;99.90;;;;;;5382013;26;20004;-51
2024/04/21 02:29:29;;;;;;;5.93;4.38;;;23.60;99.90;;;;;;5381884;26;20000;-50
2024/04/21 02:31:55;;;;;;;4.78;3.42;;;23.60;99.90;;;;;;5381689;26;20012;-50
2024/04/21 02:34:21;;;;;;;6.68;3.97;;;23.50;99.90;;;;;;5380086;26;20012;-49
2024/04/21 02:36:46;;;;;;;6.95;4.10;;;23.50;99.90;;;;;;5382229;26;19996;-50
2024/04/21 02:39:12;;;;;;;6.45;3.97;;;23.50;99.90;;;;;;5382060;26;20000;-50
2024/04/21 02:41:38;;;;;;;5.97;4.32;;;23.50;99.90;;;;;;5381895;26;20000;-50
2024/04/21 02:44:04;;;;;;;6.82;4.10;;;23.50;99.90;;;;;;5381858;26;20050;-50
2024/04/21 02:46:30;;;;;;;5.82;3.97;;;23.50;99.90;;;;;;5381893;26;20042;-50
2024/04/21 02:48:55;;;;;;;5.43;4.00;;;23.50;99.90;;;;;;5378793;26;20011;-50
2024/04/21 02:51:21;;;;;;;5.45;4.15;;;23.50;99.90;;;;;;5361626;26;19996;-50
2024/04/21 02:53:47;;;;;;;6.68;4.28;;;23.50;99.90;;;;;;5351770;26;20016;-51
2024/04/21 02:56:13;;;;;;;5.78;4.07;;;23.50;99.90;;;;;;5367510;26;20004;-49
2024/04/21 02:58:38;;;;;;;4.90;4.00;;;23.50;99.90;;;;;;5363311;26;20016;-49
2024/04/21 03:01:05;;;;;;;7.25;3.90;;;23.50;99.90;;;;;;5381313;26;20448;-50
2024/04/21 03:03:31;;;;;;;5.73;4.17;;;23.50;99.90;;;;;;5379586;26;20015;-48
2024/04/21 03:05:58;;;;;;;5.72;3.50;;;23.50;99.90;;;;;;5380861;26;20001;-49
2024/04/21 03:08:27;;;;;;;6.00;3.92;;;23.50;99.90;;;;;;5381428;26;20012;-49
2024/04/21 03:10:53;;;;;;;6.45;4.72;;;23.50;99.90;;;;;;5378961;26;19997;-49
2024/04/21 03:13:19;;;;;;;7.35;4.50;;;23.50;99.90;;;;;;5377875;26;20547;-49
2024/04/21 03:15:51;;;;;;;7.05;4.45;;;23.50;99.90;;;;;;5377907;26;20117;-50
2024/04/21 03:18:17;;;;;;;7.38;4.45;;;23.50;99.90;;;;;;5378003;26;20007;-49
2024/04/21 03:20:42;;;;;;;6.15;4.03;;;23.50;99.90;;;;;;5377757;26;20004;-49
2024/04/21 03:23:08;;;;;;;7.38;4.53;;;23.50;99.90;;;;;;5377758;26;19996;-49
2024/04/21 03:25:35;;;;;;;6.90;4.65;;;23.40;99.90;;;;;;5376858;26;20000;-49
2024/04/21 03:28:00;;;;;;;7.40;4.63;;;23.40;99.90;;;;;;5380076;26;20384;-50
2024/04/21 03:30:26;;;;;;;4.93;4.20;;;23.40;99.90;;;;;;5381224;26;20000;-49
2024/04/21 03:32:52;;;;;;;6.40;4.70;;;23.40;99.90;;;;;;5381111;26;20000;-49
2024/04/21 03:35:18;;;;;;;7.55;4.45;;;23.40;99.90;;;;;;5381579;26;19996;-49
2024/04/21 03:37:44;;;;;;;6.80;4.70;;;23.40;99.90;;;;;;5381294;26;20003;-50
2024/04/21 03:40:10;;;;;;;6.70;4.90;;;23.40;99.90;;;;;;5381168;26;20014;-50
2024/04/21 03:42:36;;;;;;;6.80;4.65;;;23.40;99.90;;;;;;5379326;26;20000;-50
2024/04/21 03:45:05;;;;;;;7.35;4.68;;;23.40;99.90;;;;;;5380931;26;19996;-49
2024/04/21 03:47:31;;;;;;;7.03;4.53;;;23.40;99.90;;;;;;5380979;26;20425;-49
2024/04/21 03:49:57;;;;;;;7.25;4.60;;;23.40;99.90;;;;;;5381092;26;20731;-49
2024/04/21 03:52:23;;;;;;;7.75;4.72;;;23.40;99.90;;;;;;5380961;26;20011;-49
2024/04/21 03:54:50;;;;;;;6.07;4.65;;;23.40;99.90;;;;;;5381069;26;20429;-50
2024/04/21 03:57:16;;;;;;;5.70;4.35;;;23.40;99.90;;;;;;5381121;26;20006;-50
2024/04/21 03:59:42;;;;;;;6.75;4.28;;;23.30;99.90;;;;;;5380953;26;19996;-49
2024/04/21 04:02:08;;;;;;;6.70;4.35;;;23.40;99.90;;;;;;5380438;26;20344;-50
2024/04/21 04:04:33;;;;;;;8.18;5.28;;;23.40;99.90;;;;;;5380909;26;20011;-49
2024/04/21 04:06:59;;;;;;;6.35;4.55;;;23.30;99.90;;;;;;5380579;26;19999;-48
2024/04/21 04:09:25;;;;;;;8.57;4.88;;;23.40;99.90;;;;;;5380734;26;20000;-49
2024/04/21 04:11:51;;;;;;;6.53;4.32;;;23.40;99.90;;;;;;5380681;26;20011;-48
2024/04/21 04:14:17;;;;;;;8.18;5.00;;;23.30;99.90;;;;;;5380583;26;20000;-48
2024/04/21 04:16:42;;;;;;;7.75;4.30;;;23.40;99.90;;;;;;5380529;26;20448;-49
2024/04/21 04:19:09;;;;;;;5.00;4.28;;;23.30;99.90;;;;;;5380532;26;19996;-49
2024/04/21 04:21:35;;;;;;;7.65;4.70;;;23.30;99.90;;;;;;5378740;26;20004;-49
2024/04/21 04:24:00;;;;;;;9.20;4.72;;;23.30;99.90;;;;;;5407973;26;20073;-50
2024/04/21 04:26:27;;;;;;;7.90;4.78;;;23.30;99.90;;;;;;5380439;26;19996;-50
2024/04/21 04:28:52;;;;;;;5.88;4.05;;;23.30;99.90;;;;;;5408273;26;20097;-49
2024/04/21 04:31:19;;;;;;;6.10;4.60;;;23.30;99.90;;;;;;5380447;26;20436;-49
2024/04/21 04:33:45;;;;;;;7.10;4.90;;;23.30;99.90;;;;;;5379989;26;20015;-50
2024/04/21 04:36:11;;;;;;;7.80;4.78;;;23.30;99.90;;;;;;5380212;26;20011;-49
2024/04/21 04:38:36;;;;;;;8.25;5.13;;;23.30;99.90;;;;;;5381738;26;20421;-49
2024/04/21 04:41:02;;;;;;;7.13;4.70;;;23.30;99.90;;;;;;5411447;26;20008;-50
2024/04/21 04:43:28;;;;;;;5.95;4.75;;;23.30;99.90;;;;;;5383337;26;19996;-49
2024/04/21 04:45:54;;;;;;;7.05;4.63;;;23.30;99.90;;;;;;5383455;26;19996;-49
2024/04/21 04:48:20;;;;;;;6.68;4.20;;;23.30;99.90;;;;;;5383947;26;20010;-50
2024/04/21 04:50:45;;;;;;;5.95;4.20;;;23.30;99.90;;;;;;5381661;26;20118;-49
2024/04/21 04:53:11;;;;;;;6.22;4.30;;;23.30;99.90;;;;;;5383344;26;19996;-49
2024/04/21 04:55:37;;;;;;;9.52;4.50;;;23.30;99.90;;;;;;5381521;26;20011;-50
2024/04/21 04:58:03;;;;;;;6.88;4.32;;;23.30;99.90;;;;;;5383177;26;20073;-50
2024/04/21 05:00:29;;;;;;;6.78;4.35;;;23.30;99.90;;;;;;5381348;26;20003;-49
2024/04/21 05:02:54;;;;;;;6.07;4.35;;;23.30;99.90;;;;;;5376427;26;20429;-50
2024/04/21 05:05:20;;;;;;;6.13;4.10;;;23.30;99.90;;;;;;5380082;26;20007;-50
2024/04/21 05:07:46;;;;;;;5.60;3.90;;;23.30;99.90;;;;;;5379641;26;20131;-49
2024/04/21 05:10:13;;;;;;;6.72;4.50;;;23.30;99.90;;;;;;5379711;26;20008;-50
2024/04/21 05:12:39;;;;;;;6.90;4.47;;;23.30;99.90;;;;;;5379638;26;20006;-50
2024/04/21 05:15:05;;;;;;;9.15;4.38;;;23.30;99.90;;;;;;5379676;26;19996;-51
2024/04/21 05:17:31;;;;;;;5.60;3.83;;;23.30;99.90;;;;;;5380073;26;20000;-51
2024/04/21 05:19:57;;;;;;;7.03;4.10;;;23.30;99.90;;;;;;5383042;26;20008;-51
2024/04/21 05:22:23;;;;;;;6.55;3.88;;;23.30;99.90;;;;;;5383417;26;19992;-50
2024/04/21 05:24:48;;;;;;;7.78;4.07;;;23.30;99.90;;;;;;5383086;26;20436;-50
2024/04/21 05:27:14;;;;;;;6.38;3.60;;;23.20;99.90;;;;;;5382915;26;19997;-49
2024/04/21 05:29:40;;;;;;;5.07;3.72;;;23.20;99.90;;;;;;5383041;26;20102;-50
2024/04/21 05:32:06;;;;;;;5.60;4.22;;;23.30;99.90;;;;;;5382750;26;20347;-50
2024/04/21 05:34:32;;;;;;;5.20;3.33;;;23.30;99.90;;;;;;5382915;26;20011;-50
2024/04/21 05:36:58;;;;;;;5.95;3.92;;;23.30;99.90;;;;;;5382920;26;20008;-51
2024/04/21 05:39:25;;;;;;;5.18;3.58;;;23.20;99.90;;;;;;5382854;26;19997;-50
2024/04/21 05:41:51;;;;;;;6.03;3.75;;;23.20;99.90;;;;;;5382913;26;20008;-50
2024/04/21 05:44:17;;;;;;;7.13;4.20;;;23.20;99.90;;;;;;5382580;26;20009;-51
2024/04/21 05:46:43;;;;;;;7.80;3.75;;;23.20;99.90;;;;;;5382818;26;20399;-49
2024/04/21 05:49:08;;;;;;;6.88;3.85;;;23.20;99.90;;;;;;5381979;26;20011;-50
2024/04/21 05:51:34;;;;;;;5.40;3.55;;;23.30;99.90;;;;;;5382603;26;20075;-49
2024/04/21 05:54:00;;;;;;;6.68;3.45;;;23.20;99.90;;;;;;5382601;26;20000;-49
2024/04/21 05:56:27;;;;;;;5.45;3.10;;;23.20;99.90;;;;;;5382863;26;20006;-49
2024/04/21 05:58:54;;;;;;;5.78;4.03;;;23.20;99.90;;;;;;5382846;26;20055;-50
2024/04/21 06:01:19;;;;;;;6.90;4.00;;;23.20;99.90;;;;;;5382315;26;19996;-49
2024/04/21 06:03:45;;;;;;;6.13;3.70;;;23.20;99.90;;;;;;5410497;26;20000;-49
2024/04/21 06:06:13;;;;;;;4.18;3.38;;;23.20;99.90;;;;;;5380543;26;20038;-51
2024/04/21 06:08:38;;;;;;;;;;;23.20;99.90;;;;;;5383153;26;20000;-49
2024/04/21 06:11:04;;;;;;;7.13;3.05;;;23.20;99.90;;;;;;5382547;26;20316;-50
2024/04/21 06:13:30;;;;;;;6.85;3.80;;;23.20;99.90;;;;;;5380620;26;19992;-50
2024/04/21 06:15:56;;;;;;;4.57;3.22;;;23.20;99.90;;;;;;5382548;26;20038;-50
2024/04/21 06:18:21;;;;;;;3.88;3.33;;;23.20;99.90;;;;;;5382376;26;20002;-49
2024/04/21 06:20:47;;;;;;;6.28;3.38;;;23.20;99.90;;;;;;5379522;26;20465;-50
2024/04/21 06:23:13;;;;;;;7.93;4.07;;;23.20;99.90;;;;;;5353342;26;20002;-50
2024/04/21 06:25:39;;;;;;;3.75;3.17;;;23.20;99.90;;;;;;5380131;26;20523;-50
2024/04/21 06:28:05;;;;;;;3.83;2.88;;;23.20;99.90;;;;;;5343937;26;20001;-51
2024/04/21 06:30:31;;;;;;;4.70;3.20;;;23.20;99.90;;;;;;5381402;26;20004;-50
2024/04/21 06:32:56;;;;;;;4.22;3.58;;;23.20;99.90;;;;;;5374891;26;20000;-51
2024/04/21 06:35:22;;;;;;;6.68;3.22;;;23.20;99.90;;;;;;5361785;26;20397;-49
2024/04/21 06:37:48;;;;;;;3.88;2.65;;;23.20;99.90;;;;;;5357375;26;20000;-50
2024/04/21 06:40:14;;;;;;;5.28;3.33;;;23.20;99.90;;;;;;5363932;26;20015;-50
2024/04/21 06:42:40;;;;;;;5.72;3.53;;;23.20;99.90;;;;;;5406044;26;19999;-50
2024/04/21 06:45:06;;;;;;;3.97;2.78;;;23.20;99.90;;;;;;5378334;26;19996;-50
2024/04/21 06:47:32;;;;;;;4.13;3.03;;;23.20;99.90;;;;;;5378051;26;20460;-51
2024/04/21 06:49:57;;;;;;;5.10;3.20;;;23.20;99.90;;;;;;5406648;26;20020;-50
2024/04/21 06:52:23;;;;;;;5.82;3.45;;;23.20;99.90;;;;;;5378273;26;20003;-51
2024/04/21 06:54:49;;;;;;;5.10;2.83;;;23.20;99.90;;;;;;5378318;26;20002;-50
2024/04/21 06:57:15;;;;;;;4.22;2.95;;;23.20;99.90;;;;;;5380278;26;20004;-50
2024/04/21 06:59:42;;;;;;;3.92;2.72;;;23.20;99.90;;;;;;5381307;26;19996;-51
2024/04/21 07:02:08;;;;;;;5.10;3.47;;;23.20;99.90;;;;;;5381111;26;19992;-50
2024/04/21 07:04:34;;;;;;;6.78;3.42;;;23.20;99.90;;;;;;5379818;26;19996;-50
2024/04/21 07:07:00;;;;;;;5.70;2.92;;;23.20;99.90;;;;;;5380130;26;19996;-50
2024/04/21 07:09:26;;;;;;;4.72;3.45;;;23.20;99.90;;;;;;5381825;26;20457;-51
2024/04/21 07:11:52;;;;;;;4.57;2.70;;;23.20;99.90;;;;;;5381338;26;20000;-50
2024/04/21 07:14:18;;;;;;;4.53;3.58;;;23.20;99.90;;;;;;5379476;26;19992;-50
2024/04/21 07:16:43;;;;;;;5.80;3.13;;;23.20;99.90;;;;;;5381546;26;20324;-50
2024/04/21 07:19:09;;;;;;;4.65;3.13;;;23.20;99.90;;;;;;5381569;26;19996;-50
2024/04/21 07:21:35;;;;;;;3.80;2.80;;;23.20;99.90;;;;;;5381401;26;20007;-50
2024/04/21 07:24:02;;;;;;;4.45;3.30;;;23.20;99.90;;;;;;5379791;26;20028;-49
2024/04/21 07:26:28;;;;;;;6.13;2.90;;;23.20;99.90;;;;;;5381808;26;20432;-50
2024/04/21 07:28:53;;;;;;;7.93;3.30;;;23.20;99.90;;;;;;5381497;26;20000;-50
2024/04/21 07:31:19;;;;;;;7.05;3.42;;;23.20;99.90;;;;;;5381148;26;19992;-50
2024/04/21 07:33:45;;;;;;;3.78;3.03;;;23.20;99.90;;;;;;5381124;26;20000;-50
2024/04/21 07:36:11;;;;;;;5.43;2.90;;;23.20;99.90;;;;;;5381129;26;20004;-50
2024/04/21 07:38:36;;;;;;;6.25;2.67;;;23.20;99.90;;;;;;5381169;26;19992;-50
2024/04/21 07:41:02;;;;;;;4.55;2.70;;;23.20;99.90;;;;;;5381305;26;20342;-49
2024/04/21 07:43:28;;;;;;;5.22;3.10;;;23.20;99.90;;;;;;5379675;26;20003;-50
2024/04/21 07:45:54;;;;;;;5.15;2.67;;;23.20;99.90;;;;;;5381207;26;19996;-50
2024/04/21 07:48:20;;;;;;;4.78;2.80;;;23.20;99.90;;;;;;5381055;26;20043;-50
2024/04/21 07:50:46;;;;;;;6.03;2.97;;;23.20;99.90;;;;;;5381164;26;20026;-50
2024/04/21 07:53:12;;;;;;;4.55;2.78;;;23.20;99.90;;;;;;5381183;26;19993;-51
2024/04/21 07:55:39;;;;;;;6.68;3.15;;;23.20;99.90;;;;;;5380759;26;20004;-50
2024/04/21 07:58:05;;;;;;;5.57;2.75;;;23.20;99.90;;;;;;5381023;26;19992;-49
2024/04/21 08:00:31;;;;;;;4.88;2.45;;;23.20;99.90;;;;;;5380828;26;20032;-49
2024/04/21 08:02:56;;;;;;;4.38;2.65;;;23.20;99.90;;;;;;5381026;26;19996;-50
2024/04/21 08:05:22;;;;;;;3.67;2.72;;;23.20;99.90;;;;;;5380953;26;20011;-51
2024/04/21 08:07:48;;;;;;;3.50;2.35;;;23.20;99.90;;;;;;5380898;26;20360;-50
2024/04/21 08:10:14;;;;;;;5.53;3.33;;;23.20;99.90;;;;;;5380663;26;20004;-50
2024/04/21 08:12:40;;;;;;;4.60;2.97;;;23.20;99.90;;;;;;5380280;26;19992;-52
2024/04/21 08:15:07;;;;;;;4.50;2.92;;;23.20;99.90;;;;;;5380650;26;19996;-52
2024/04/21 08:17:33;;;;;;;4.90;2.50;;;23.20;99.90;;;;;;5381019;26;20011;-51
2024/04/21 08:19:59;;;;;;;4.45;3.22;;;23.20;99.90;;;;;;5408342;26;20440;-50
2024/04/21 08:22:24;;;;;;;3.92;2.45;;;23.20;99.90;;;;;;5380430;26;20103;-51
2024/04/21 08:24:50;;;;;;;4.65;2.90;;;23.20;99.90;;;;;;5380609;26;19992;-51
2024/04/21 08:27:16;;;;;;;3.88;2.60;;;23.20;99.90;;;;;;5380551;26;19996;-51
2024/04/21 08:29:42;;;;;;;3.95;2.58;;;23.20;99.90;;;;;;5380628;26;20356;-52
2024/04/21 08:32:08;;;;;;;5.40;2.83;;;23.20;99.90;;;;;;5380326;26;20062;-51
2024/04/21 08:34:35;;;;;;;4.07;2.70;;;23.20;99.90;;;;;;5380451;26;20004;-51
2024/04/21 08:37:01;;;;;;;5.82;3.08;;;23.20;99.90;;;;;;5378582;26;19992;-51
2024/04/21 08:39:27;;;;;;;4.90;2.50;;;23.20;99.90;;;;;;5380310;26;20016;-51
2024/04/21 08:41:55;;;;;;;4.63;3.03;;;23.20;99.90;;;;;;5408044;26;20004;-51
2024/04/21 08:44:23;;;;;;;5.22;2.90;;;23.20;99.90;;;;;;5380171;26;20028;-49
2024/04/21 08:46:50;;;;;;;5.93;2.90;;;23.20;99.90;;;;;;5380094;26;20039;-50
2024/04/21 08:49:16;;;;;;;8.13;3.28;;;23.20;99.90;;;;;;5378338;26;19993;-49
2024/04/21 08:51:46;;;;;;;5.53;2.85;;;23.20;99.90;;;;;;5379712;26;20007;-50
2024/04/21 08:54:11;;;;;;;4.28;3.10;;;23.20;99.90;;;;;;5379814;26;19996;-50
2024/04/21 08:56:43;;;;;;;4.97;2.90;;;23.20;99.90;;;;;;5378281;26;20038;-50
2024/04/21 08:59:10;;;;;;;5.15;3.20;;;23.20;99.90;;;;;;5379870;26;20410;-50
2024/04/21 09:01:36;;;;;;;5.85;3.05;;;23.20;99.90;;;;;;5407670;26;20006;-50
2024/04/21 09:04:04;;;;;;;8.63;3.55;;;23.20;99.90;;;;;;5380302;26;20074;-50
2024/04/21 09:06:30;;;;;;;;;;;23.20;99.90;;;;;;5380648;26;20004;-50
2024/04/21 09:08:56;;;;;;;4.73;2.63;;;23.20;99.90;;;;;;5379893;26;19926;-50
2024/04/21 09:11:27;;;;;;;5.95;3.58;;;23.30;99.90;;;;;;5379710;26;20328;-50
2024/04/21 09:13:56;;;;;;;7.40;3.65;;;23.20;99.90;;;;;;5379687;26;20028;-51
2024/04/21 09:16:24;;;;;;;4.82;2.92;;;23.20;99.90;;;;;;5379566;26;20022;-50
2024/04/21 09:18:50;;;;;;;7.18;3.83;;;23.20;99.90;;;;;;5379672;26;20004;-50
2024/04/21 09:21:15;;;;;;;7.50;3.42;;;23.20;99.90;;;;;;5377652;26;20000;-50
2024/04/21 09:23:42;;;;;;;5.35;2.97;;;23.20;99.90;;;;;;5407850;26;20000;-50
2024/04/21 09:26:08;;;;;;;6.80;3.20;;;23.20;99.90;;;;;;5410946;26;19998;-50
2024/04/21 09:28:34;;;;;;;6.18;3.53;;;23.20;99.90;;;;;;5383186;26;20000;-50
2024/04/21 09:31:00;;;;;;;6.90;3.03;;;23.30;99.90;;;;;;5382832;26;20000;-49
2024/04/21 09:33:27;;;;;;;6.20;3.63;;;23.20;99.90;;;;;;5383087;26;20007;-49
2024/04/21 09:35:57;;;;;;;6.20;3.30;;;23.20;99.90;;;;;;5382967;26;20441;-50
2024/04/21 09:38:23;;;;;;;5.00;2.90;;;23.30;99.90;;;;;;5382930;26;19996;-49
2024/04/21 09:40:53;;;;;;;5.68;3.63;;;23.30;99.90;;;;;;5372602;26;20004;-50
2024/04/21 09:43:21;;;;;;;5.00;3.30;;;23.30;99.90;;;;;;5367313;26;20456;-50
2024/04/21 09:45:50;;;;;;;5.95;3.63;;;23.30;99.90;;;;;;5362758;26;19996;-50
2024/04/21 09:48:18;;;;;;;6.10;3.33;;;23.30;99.90;;;;;;5382234;26;20081;-50
2024/04/21 09:50:46;;;;;;;7.20;3.45;;;23.20;99.90;;;;;;5382135;26;20075;-51
2024/04/21 09:53:13;;;;;;;7.38;3.22;;;23.20;99.90;;;;;;5382285;26;20023;-50
2024/04/21 09:55:40;;;;;;;;;;;23.30;99.90;;;;;;5382636;26;20069;-50
2024/04/21 09:58:11;;;;;;;6.03;3.25;;;23.30;99.90;;;;;;5382848;26;19926;-50
2024/04/21 10:00:39;;;;;;;5.80;3.50;;;23.30;99.90;;;;;;5382151;26;20436;-49
2024/04/21 10:03:07;;;;;;;5.97;3.35;;;23.30;99.90;;;;;;5409802;26;20000;-51
2024/04/21 10:05:34;;;;;;;7.72;4.03;;;23.30;99.90;;;;;;5382183;26;19996;-50
2024/04/21 10:08:00;;;;;;;7.10;4.13;;;23.30;99.90;;;;;;5382045;26;20008;-50
2024/04/21 10:10:29;;;;;;;6.95;4.03;;;23.30;99.90;;;;;;5381858;26;20004;-50
2024/04/21 10:12:56;;;;;;;5.10;3.78;;;23.30;99.90;;;;;;5379321;26;20004;-50
2024/04/21 10:15:23;;;;;;;6.35;3.30;;;23.30;99.90;;;;;;5378905;26;19992;-50
2024/04/21 10:18:02;;;;;;;7.60;3.72;;;23.30;99.90;;;;;;5378619;26;20482;-50
2024/04/21 10:20:38;;;;;;;6.70;4.18;;;23.30;99.90;;;;;;5378806;26;20011;-50
2024/04/21 10:23:07;;;;;;;5.35;3.42;;;23.30;99.90;;;;;;5378766;26;20004;-51
2024/04/21 10:25:34;;;;;;;6.53;3.47;;;23.30;99.90;;;;;;5376946;26;20008;-51
2024/04/21 10:28:07;;;;;;;4.72;3.90;;;23.40;99.90;;;;;;5381076;26;20000;-50
2024/04/21 10:30:34;;;;;;;10.10;3.85;;;23.40;99.90;;;;;;5382276;26;20023;-50
2024/04/21 10:33:02;;;;;;;10.60;4.50;;;23.40;99.90;;;;;;5381977;26;19996;-49
2024/04/21 10:35:35;;;;;;;8.55;3.50;;;23.40;99.90;;;;;;5381853;26;20000;-50
2024/04/21 10:38:12;;;;;;;7.15;3.33;;;23.40;99.90;;;;;;5380173;26;20007;-49
2024/04/21 10:40:48;;;;;;;4.78;3.42;;;23.40;99.90;;;;;;5382270;26;20008;-49
2024/04/21 10:43:25;;;;;;;7.75;3.63;;;23.40;99.90;;;;;;5381983;26;20007;-50
2024/04/21 10:46:00;;;;;;;6.60;3.45;;;23.40;99.90;;;;;;5381983;26;20000;-49
2024/04/21 10:48:26;;;;;;;5.65;3.03;;;23.50;99.90;;;;;;5381891;26;20463;-50
2024/04/21 10:50:53;;;;;;;6.13;3.75;;;23.50;99.90;;;;;;5381685;26;20000;-49
2024/04/21 10:53:19;;;;;;;4.78;2.95;;;23.50;99.90;;;;;;5381574;26;20000;-50
2024/04/21 10:55:46;;;;;;;5.43;3.15;;;23.50;99.90;;;;;;5381989;26;19996;-50
2024/04/21 10:58:12;;;;;;;8.05;2.88;;;23.50;99.90;;;;;;5382287;26;20004;-49
2024/04/21 11:00:38;;;;;;;4.20;2.75;;;23.50;99.90;;;;;;5381843;26;20032;-50
2024/04/21 11:03:05;;;;;;;4.03;2.78;;;23.50;99.90;;;;;;5381904;26;20002;-50
2024/04/21 11:05:56;;;;;;;6.78;3.53;;;23.50;99.90;;;;;;5381535;26;20004;-50
2024/04/21 11:08:23;;;;;;;5.90;3.17;;;23.50;99.90;;;;;;5381689;26;19996;-50
2024/04/21 11:10:49;;;;;;;6.38;3.05;;;23.60;99.90;;;;;;5381666;26;19996;-50
2024/04/21 11:13:15;;;;;;;6.78;3.08;;;23.60;99.90;;;;;;5381774;26;20011;-51
2024/04/21 11:15:41;;;;;;;6.28;3.05;;;23.60;99.90;;;;;;5381964;26;20329;-50
2024/04/21 11:18:08;;;;;;;7.57;3.35;;;23.60;99.90;;;;;;5381516;26;20398;-50
2024/04/21 11:20:34;;;;;;;4.65;3.00;;;23.60;99.90;;;;;;5381533;26;20035;-50
2024/04/21 11:23:00;;;;;;;3.90;2.65;;;23.60;99.90;;;;;;5381555;26;19996;-51
2024/04/21 11:25:26;;;;;;;6.95;2.83;;;23.70;99.90;;;;;;5381627;26;19997;-50
2024/04/21 11:27:51;;;;;;;4.07;2.35;;;23.60;99.90;;;;;;5381556;26;20007;-50
2024/04/21 11:30:23;;;;;;;5.38;3.03;;;23.60;99.90;;;;;;5381452;26;20000;-49
2024/04/21 11:32:49;;;;;;;4.68;2.85;;;23.60;99.90;;;;;;5381224;26;20074;-50
2024/04/21 11:35:16;;;;;;;5.28;2.40;;;23.70;99.90;;;;;;5381158;26;20000;-50
2024/04/21 11:37:44;;;;;;;5.32;2.92;;;23.70;99.90;;;;;;5381799;26;20027;-50
2024/04/21 11:40:10;;;;;;;4.20;2.50;;;23.70;99.90;;;;;;5381373;26;20011;-50
2024/04/21 11:42:35;;;;;;;4.65;2.83;;;23.70;99.90;;;;;;5381281;26;20000;-50
2024/04/21 11:45:01;;;;;;;3.88;2.72;;;23.70;99.90;;;;;;5381239;26;20069;-51
2024/04/21 11:47:27;;;;;;;5.80;3.20;;;23.70;99.90;;;;;;5380201;26;20073;-50
2024/04/21 11:49:53;;;;;;;4.38;2.28;;;23.70;99.90;;;;;;5381141;26;20000;-50
2024/04/21 11:52:20;;;;;;;7.85;2.42;;;23.70;99.90;;;;;;5381149;26;20070;-50
2024/04/21 11:54:46;;;;;;;4.32;2.13;;;23.70;99.90;;;;;;5381231;26;20004;-50
2024/04/21 11:57:12;;;;;;;5.43;2.28;;;23.70;99.90;;;;;;5381321;26;20505;-50
2024/04/21 11:59:38;;;;;;;3.80;1.98;;;23.70;99.90;;;;;;5408715;26;20000;-50
2024/04/21 12:02:04;;;;;;;8.00;2.30;;;23.70;99.90;;;;;;5381128;26;20070;-51
2024/04/21 12:04:29;;;;;;;5.05;2.42;;;23.80;99.90;;;;;;5380931;26;20008;-51
2024/04/21 12:06:55;;;;;;;5.55;2.47;;;23.80;99.90;;;;;;5408850;26;20004;-49
2024/04/21 12:09:21;;;;;;;4.45;2.40;;;23.80;99.90;;;;;;5380997;26;20069;-50
2024/04/21 12:11:47;;;;;;;4.28;2.30;;;23.80;99.90;;;;;;5380731;26;20440;-51
2024/04/21 12:14:32;;;;;;;6.47;2.70;;;23.80;99.90;;;;;;5381154;26;19996;-51
2024/04/21 12:16:58;;;;;;;5.22;2.20;;;23.80;99.90;;;;;;5380743;26;20008;-50
2024/04/21 12:19:25;;;;;;;4.25;1.90;;;23.80;99.90;;;;;;5380917;26;20055;-49
2024/04/21 12:21:51;;;;;;;6.20;2.28;;;23.80;99.90;;;;;;5380827;26;20073;-49
2024/04/21 12:24:17;;;;;;;3.92;2.20;;;23.80;99.90;;;;;;5380511;26;20000;-50
2024/04/21 12:26:42;;;;;;;4.97;2.38;;;23.90;99.90;;;;;;5380805;26;20004;-49
2024/04/21 12:29:08;;;;;;;4.68;2.50;;;23.90;99.90;;;;;;5380278;26;20082;-50
2024/04/21 12:31:34;;;;;;;3.88;2.25;;;23.90;99.90;;;;;;5380312;26;20004;-50
2024/04/21 12:34:00;;;;;;;5.75;2.20;;;23.90;99.90;;;;;;5380511;26;20000;-51
2024/04/21 12:36:25;;;;;;;6.53;2.22;;;23.90;99.90;;;;;;5380420;26;19996;-50
2024/04/21 12:38:51;;;;;;;5.50;2.10;;;23.90;99.90;;;;;;5380271;26;20000;-50
2024/04/21 12:41:17;;;;;;;6.28;2.28;;;23.90;99.90;;;;;;5380839;26;20006;-50
2024/04/21 12:43:43;;;;;;;6.35;2.05;;;23.90;99.90;;;;;;5380419;26;20327;-50